createdAt,value
2023-05-06T04:37:41.390Z,14.10
2023-05-06T04:42:49.887Z,14.30
2023-05-06T04:47:57.680Z,14.30
2023-05-06T04:53:02.929Z,14.40
2023-05-06T04:58:06.169Z,14.40
2023-05-06T05:03:09.757Z,14.50
2023-05-06T05:08:14.602Z,14.40
2023-05-06T05:13:17.872Z,14.50
2023-05-06T05:18:22.405Z,14.70
2023-05-06T05:38:48.709Z,14.60
2023-05-06T05:43:51.967Z,15.30
2023-05-06T05:54:01.544Z,15.60
2023-05-06T06:04:08.937Z,15.80
2023-05-06T06:09:13.712Z,15.80
2023-05-06T06:14:17.807Z,15.90
2023-05-06T06:19:23.563Z,16.20
2023-05-06T06:34:36.547Z,16.20
2023-05-06T06:44:44.689Z,16.60
2023-05-06T06:49:47.862Z,17.20
2023-05-06T06:54:52.372Z,17.40
2023-05-06T06:59:55.779Z,17.70
2023-05-06T07:10:03.858Z,17.80
2023-05-06T07:15:09.188Z,18.20
2023-05-06T07:25:18.340Z,18.30
2023-05-06T07:30:23.163Z,18.50
2023-05-06T07:35:26.768Z,18.40
2023-05-06T07:40:31.403Z,18.40
2023-05-06T07:45:34.608Z,18.50
2023-05-06T07:50:37.779Z,18.60
2023-05-06T07:55:42.380Z,18.50
2023-05-06T08:00:45.553Z,18.40
2023-05-06T08:05:50.551Z,18.40
2023-05-06T08:10:55.326Z,18.70
2023-05-06T08:15:58.897Z,18.80
2023-05-06T08:21:02.356Z,18.90
2023-05-06T08:31:44.969Z,19.00
2023-05-06T08:36:48.340Z,19.20
2023-05-06T08:41:54.064Z,19.00
2023-05-06T08:46:58.782Z,19.00
2023-05-06T08:52:06.309Z,19.00
2023-05-06T08:57:13.195Z,19.20
2023-05-06T09:02:18.051Z,19.20
2023-05-06T09:07:22.685Z,19.30
2023-05-06T09:12:26.347Z,19.20
2023-05-06T09:17:33.054Z,19.40
2023-05-06T09:22:39.065Z,19.50
2023-05-06T09:27:42.605Z,19.50
2023-05-06T09:32:49.797Z,19.40
2023-05-06T09:37:53.161Z,19.50
2023-05-06T09:42:57.103Z,19.70
2023-05-06T09:48:02.157Z,19.70
2023-05-06T09:53:06.733Z,19.60
2023-05-06T09:58:11.115Z,19.50
2023-05-06T10:03:17.720Z,19.50
2023-05-06T10:08:21.472Z,19.60
2023-05-06T10:13:26.365Z,19.50
2023-05-06T10:18:31.860Z,19.50
2023-05-06T10:23:44.338Z,19.50
2023-05-06T10:28:52.755Z,19.70
2023-05-06T10:34:01.938Z,19.90
2023-05-06T10:39:07.566Z,19.90
2023-05-06T10:44:12.054Z,20.10
2023-05-06T10:49:20.944Z,20.20
2023-05-06T10:54:27.808Z,20.20
2023-05-06T10:59:31.548Z,20.00
2023-05-06T11:04:37.560Z,20.20
2023-05-06T11:09:57.277Z,20.20
2023-05-06T11:15:20.953Z,20.20
2023-05-06T11:20:27.205Z,20.50
2023-05-06T11:25:45.243Z,20.40
2023-05-06T11:30:56.557Z,20.30
2023-05-06T11:36:01.748Z,20.30
2023-05-06T11:41:05.617Z,20.50
2023-05-06T11:46:09.005Z,20.40
2023-05-06T11:51:13.848Z,20.40
2023-05-06T11:56:17.097Z,20.40
2023-05-06T12:01:20.218Z,20.50
2023-05-06T12:06:35.198Z,20.60
2023-05-06T12:11:39.618Z,20.50
2023-05-06T12:16:43.156Z,20.40
2023-05-06T12:21:47.973Z,20.40
2023-05-06T12:26:51.938Z,20.40
2023-05-06T12:32:09.206Z,20.50
2023-05-06T12:37:25.829Z,20.50
2023-05-06T12:42:29.223Z,20.40
2023-05-06T12:47:32.434Z,20.40
2023-05-06T12:52:45.078Z,20.50
2023-05-06T12:57:49.252Z,20.70
2023-05-06T13:02:52.632Z,20.70
2023-05-06T13:07:57.259Z,20.60
2023-05-06T13:13:00.588Z,20.70
2023-05-06T13:18:04.255Z,20.60
2023-05-06T13:23:08.939Z,20.60
2023-05-06T13:28:12.160Z,20.70
2023-05-06T13:33:15.422Z,20.80
2023-05-06T13:38:20.497Z,20.90
2023-05-06T13:43:25.686Z,20.80
2023-05-06T13:48:29.360Z,20.70
2023-05-06T13:53:35.032Z,20.70
2023-05-06T13:58:38.377Z,20.80
2023-05-06T14:03:41.584Z,21.00
2023-05-06T14:08:47.041Z,20.80
2023-05-06T14:13:50.494Z,21.10
2023-05-06T14:18:53.681Z,21.00
2023-05-06T14:23:59.053Z,21.00
2023-05-06T14:29:02.589Z,20.90
2023-05-06T14:34:05.913Z,20.90
2023-05-06T14:39:10.637Z,21.20
2023-05-06T14:44:13.887Z,21.10
2023-05-06T14:49:17.080Z,20.90
2023-05-06T14:54:21.698Z,20.90
2023-05-06T14:59:24.827Z,20.80
2023-05-06T15:04:28.518Z,20.90
2023-05-06T15:09:33.365Z,20.80
2023-05-06T15:14:37.291Z,20.90
2023-05-06T15:19:40.595Z,20.90
2023-05-06T15:24:46.247Z,20.80
2023-05-06T15:29:49.520Z,20.80
2023-05-06T15:34:52.772Z,20.70
2023-05-06T15:39:57.686Z,20.60
2023-05-06T15:45:00.917Z,20.80
2023-05-06T15:50:14.068Z,20.80
2023-05-06T15:55:29.769Z,20.70
2023-05-06T16:00:32.933Z,20.70
2023-05-06T16:05:36.303Z,20.60
2023-05-06T16:10:41.196Z,20.60
2023-05-06T16:15:44.939Z,20.50
2023-05-06T16:20:48.429Z,20.40
2023-05-06T16:25:52.888Z,20.30
2023-05-06T16:30:56.259Z,19.80
2023-05-06T16:35:59.543Z,19.70
2023-05-06T16:41:04.340Z,19.70
2023-05-06T16:46:07.588Z,19.70
2023-05-06T16:51:12.332Z,19.50
2023-05-06T16:56:16.815Z,19.50
2023-05-06T17:01:20.208Z,19.30
2023-05-06T17:06:24.764Z,19.10
2023-05-06T17:11:29.610Z,19.10
2023-05-06T17:16:32.939Z,19.00
2023-05-06T17:21:36.342Z,19.20
2023-05-06T17:26:41.807Z,19.10
2023-05-06T17:31:45.279Z,19.20
2023-05-06T17:36:48.509Z,19.20
2023-05-06T17:41:53.355Z,19.20
2023-05-06T17:46:57.316Z,19.20
2023-05-06T17:52:01.700Z,19.10
2023-05-06T17:57:06.740Z,19.00
2023-05-06T18:02:13.957Z,19.00
2023-05-06T18:07:17.375Z,18.60
2023-05-06T18:12:22.238Z,18.50
2023-05-06T18:17:25.766Z,18.50
2023-05-06T18:22:29.164Z,18.60
2023-05-06T18:27:34.033Z,18.70
2023-05-06T18:32:37.990Z,18.40
2023-05-06T18:37:41.485Z,18.50
2023-05-06T18:42:47.417Z,18.50
2023-05-06T18:47:50.764Z,18.20
2023-05-06T18:52:56.229Z,18.40
2023-05-06T18:58:05.590Z,18.20
2023-05-06T19:03:09.506Z,18.30
2023-05-06T19:08:13.755Z,18.10
2023-05-06T19:13:18.743Z,17.70
2023-05-06T19:18:22.108Z,17.80
2023-05-06T19:23:25.470Z,17.60
2023-05-06T19:28:30.266Z,17.40
2023-05-06T19:33:33.546Z,17.40
2023-05-06T19:38:36.860Z,17.30
2023-05-06T19:43:45.341Z,17.40
2023-05-06T19:48:48.642Z,17.30
2023-05-06T19:53:51.933Z,17.40
2023-05-06T19:58:56.775Z,17.20
2023-05-06T20:04:00.307Z,17.30
2023-05-06T20:09:04.196Z,17.50
2023-05-06T20:14:09.030Z,17.20
2023-05-06T20:19:12.575Z,16.90
2023-05-06T20:24:16.314Z,16.90
2023-05-06T20:29:21.328Z,16.90
2023-05-06T20:34:24.700Z,17.00
2023-05-06T20:39:28.209Z,16.90
2023-05-06T20:44:33.215Z,17.30
2023-05-06T20:49:36.769Z,17.10
2023-05-06T20:54:40.356Z,17.20
2023-05-06T20:59:46.041Z,17.00
2023-05-06T21:04:49.455Z,16.70
2023-05-06T21:09:52.835Z,16.60
2023-05-06T21:14:59.188Z,16.70
2023-05-06T21:20:06.933Z,16.70
2023-05-06T21:25:13.425Z,17.00
2023-05-06T21:30:19.019Z,17.00
2023-05-06T21:35:24.961Z,16.90
2023-05-06T21:40:28.283Z,17.00
2023-05-06T21:45:32.975Z,17.00
2023-05-06T21:50:37.950Z,16.90
2023-05-06T21:55:41.651Z,16.70
2023-05-06T22:00:46.482Z,16.80
2023-05-06T22:05:50.018Z,16.80
2023-05-06T22:10:53.656Z,16.80
2023-05-06T22:15:58.389Z,16.80
2023-05-06T22:21:01.840Z,16.80
2023-05-06T22:26:05.293Z,16.70
2023-05-06T22:31:10.180Z,16.60
2023-05-06T22:36:13.519Z,16.60
2023-05-06T22:41:18.305Z,16.60
2023-05-06T22:46:23.208Z,16.60
2023-05-06T22:51:26.497Z,16.60
2023-05-06T22:56:29.862Z,16.50
2023-05-06T23:01:35.104Z,16.50
2023-05-06T23:06:38.436Z,16.40
2023-05-06T23:11:41.908Z,16.20
2023-05-06T23:16:46.754Z,16.40
2023-05-06T23:21:50.053Z,16.30
2023-05-06T23:26:53.387Z,16.20
2023-05-06T23:31:58.034Z,16.20
2023-05-06T23:37:01.436Z,16.30
2023-05-06T23:42:05.042Z,16.20
2023-05-06T23:47:09.760Z,16.20
2023-05-06T23:52:13.709Z,16.20
2023-05-06T23:57:16.999Z,16.20
